createdAt,value
2022-09-27T00:00:59.792Z, 22.41
2022-09-27T00:01:59.915Z, 22.42
2022-09-27T00:03:00.037Z, 22.42
2022-09-27T00:03:59.941Z, 22.40
2022-09-27T00:04:59.909Z, 22.41
2022-09-27T00:05:59.995Z, 22.41
2022-09-27T00:06:59.972Z, 22.40
2022-09-27T00:08:00.053Z, 22.42
2022-09-27T00:09:00.111Z, 22.41
2022-09-27T00:10:00.116Z, 22.40
2022-09-27T00:11:00.096Z, 22.41
2022-09-27T00:12:00.187Z, 22.39
2022-09-27T00:13:00.175Z, 22.40
2022-09-27T00:14:00.224Z, 22.41
2022-09-27T00:15:00.253Z, 22.40
2022-09-27T00:16:00.378Z, 22.41
2022-09-27T00:17:00.308Z, 22.41
2022-09-27T00:18:00.348Z, 22.42
2022-09-27T00:19:00.357Z, 22.41
2022-09-27T00:20:00.376Z, 22.42
2022-09-27T00:21:00.400Z, 22.40
2022-09-27T00:22:00.430Z, 22.42
2022-09-27T00:23:00.453Z, 22.42
2022-09-27T00:24:00.570Z, 22.41
2022-09-27T00:25:00.558Z, 22.41
2022-09-27T00:26:00.595Z, 22.41
2022-09-27T00:27:00.593Z, 22.40
2022-09-27T00:28:00.633Z, 22.41
2022-09-27T00:29:00.703Z, 22.41
2022-09-27T00:30:00.706Z, 22.39
2022-09-27T00:31:00.863Z, 22.41
2022-09-27T00:32:00.791Z, 22.41
2022-09-27T00:33:00.863Z, 22.39
2022-09-27T00:34:00.834Z, 22.40
2022-09-27T00:35:00.942Z, 22.41
2022-09-27T00:36:00.921Z, 22.38
2022-09-27T00:37:00.994Z, 22.40
2022-09-27T00:38:01.019Z, 22.41
2022-09-27T00:39:01.019Z, 22.40
2022-09-27T00:40:01.012Z, 22.40
2022-09-27T00:41:01.191Z, 22.40
2022-09-27T00:42:01.134Z, 22.40
2022-09-27T00:43:01.122Z, 22.41
2022-09-27T00:44:01.227Z, 22.40
2022-09-27T00:45:01.213Z, 22.41
2022-09-27T00:46:01.297Z, 22.40
2022-09-27T00:47:01.242Z, 22.40
2022-09-27T00:48:01.265Z, 22.40
2022-09-27T00:49:01.304Z, 22.40
2022-09-27T00:50:01.335Z, 22.39
2022-09-27T00:51:01.386Z, 22.41
2022-09-27T00:52:01.455Z, 22.40
2022-09-27T00:53:01.451Z, 22.39
2022-09-27T00:54:01.468Z, 22.40
2022-09-27T00:55:01.561Z, 22.38
2022-09-27T00:56:01.544Z, 22.39
2022-09-27T00:57:01.589Z, 22.41
2022-09-27T00:58:01.610Z, 22.40
2022-09-27T00:59:01.729Z, 22.38
2022-09-27T01:00:01.701Z, 22.40
2022-09-27T01:01:01.812Z, 22.39
2022-09-27T01:02:01.756Z, 22.38
2022-09-27T01:03:01.927Z, 22.40
2022-09-27T01:04:01.812Z, 22.39
2022-09-27T01:05:01.831Z, 22.38
2022-09-27T01:06:01.870Z, 22.40
2022-09-27T01:07:01.905Z, 22.40
2022-09-27T01:08:01.951Z, 22.38
2022-09-27T01:09:01.988Z, 22.39
2022-09-27T01:10:02.015Z, 22.38
2022-09-27T01:11:02.100Z, 22.38
2022-09-27T01:12:02.164Z, 22.42
2022-09-27T01:13:02.118Z, 22.39
2022-09-27T01:14:02.149Z, 22.41
2022-09-27T01:15:02.188Z, 22.40
2022-09-27T01:16:02.315Z, 22.39
2022-09-27T01:17:02.266Z, 22.40
2022-09-27T01:18:02.301Z, 22.40
2022-09-27T01:19:02.402Z, 22.39
2022-09-27T01:20:02.379Z, 22.40
2022-09-27T01:21:02.431Z, 22.40
2022-09-27T01:22:02.443Z, 22.38
2022-09-27T01:23:02.495Z, 22.41
2022-09-27T01:24:02.538Z, 22.37
2022-09-27T01:25:02.588Z, 22.39
2022-09-27T01:26:02.602Z, 22.40
2022-09-27T01:27:02.651Z, 22.39
2022-09-27T01:28:02.662Z, 22.39
2022-09-27T01:29:02.702Z, 22.39
2022-09-27T01:30:02.721Z, 22.40
2022-09-27T01:31:02.909Z, 22.39
2022-09-27T01:32:02.828Z, 22.39
2022-09-27T01:33:02.841Z, 22.38
2022-09-27T01:34:02.869Z, 22.39
2022-09-27T01:35:02.895Z, 22.39
2022-09-27T01:36:02.913Z, 22.40
2022-09-27T01:37:03.028Z, 22.39
2022-09-27T01:38:03.067Z, 22.37
2022-09-27T01:39:03.061Z, 22.39
2022-09-27T01:40:03.091Z, 22.40
2022-09-27T01:41:03.210Z, 22.39
2022-09-27T01:42:03.171Z, 22.38
2022-09-27T01:43:03.211Z, 22.38
2022-09-27T01:44:03.300Z, 22.38
2022-09-27T01:45:03.267Z, 22.40
2022-09-27T01:46:03.454Z, 22.39
2022-09-27T01:47:03.369Z, 22.38
2022-09-27T01:48:03.438Z, 22.39
2022-09-27T01:49:03.427Z, 22.38
2022-09-27T01:50:03.473Z, 22.38
2022-09-27T01:51:03.503Z, 22.39
2022-09-27T01:52:03.515Z, 22.38
2022-09-27T01:53:03.538Z, 22.38
2022-09-27T01:54:03.611Z, 22.40
2022-09-27T01:55:03.600Z, 22.38
2022-09-27T01:56:03.635Z, 22.38
2022-09-27T01:57:03.662Z, 22.39
2022-09-27T01:58:03.698Z, 22.36
2022-09-27T01:59:03.716Z, 22.38
2022-09-27T02:00:03.741Z, 22.39
2022-09-27T02:01:03.874Z, 22.37
2022-09-27T02:02:03.878Z, 22.39
2022-09-27T02:03:03.980Z, 22.37
2022-09-27T02:04:03.901Z, 22.39
2022-09-27T02:05:03.947Z, 22.39
2022-09-27T02:06:03.970Z, 22.39
2022-09-27T02:07:04.006Z, 22.38
2022-09-27T02:08:04.044Z, 22.39
2022-09-27T02:09:04.066Z, 22.39
2022-09-27T02:10:04.103Z, 22.37
2022-09-27T02:11:04.167Z, 22.39
2022-09-27T02:12:04.230Z, 22.38
2022-09-27T02:13:04.150Z, 22.37
2022-09-27T02:14:04.139Z, 22.38
2022-09-27T02:15:04.167Z, 22.38
2022-09-27T02:16:04.304Z, 22.37
2022-09-27T02:17:04.145Z, 22.38
2022-09-27T02:18:04.159Z, 22.37
2022-09-27T02:19:04.162Z, 22.38
2022-09-27T02:20:04.163Z, 22.39
2022-09-27T02:21:04.169Z, 22.37
2022-09-27T02:22:04.202Z, 22.38
2022-09-27T02:23:04.181Z, 22.39
2022-09-27T02:24:04.186Z, 22.37
2022-09-27T02:25:04.186Z, 22.38
2022-09-27T02:26:04.192Z, 22.39
2022-09-27T02:27:04.186Z, 22.37
2022-09-27T02:28:04.221Z, 22.38
2022-09-27T02:29:04.204Z, 22.38
2022-09-27T02:30:04.236Z, 22.37
2022-09-27T02:31:04.288Z, 22.38
2022-09-27T02:32:04.250Z, 22.37
2022-09-27T02:33:04.236Z, 22.36
2022-09-27T02:34:04.220Z, 22.39
2022-09-27T02:35:04.234Z, 22.37
2022-09-27T02:36:04.234Z, 22.37
2022-09-27T02:37:04.255Z, 22.37
2022-09-27T02:38:04.249Z, 22.38
2022-09-27T02:39:04.289Z, 22.38
2022-09-27T02:40:04.295Z, 22.37
2022-09-27T02:41:04.418Z, 22.37
2022-09-27T02:42:04.274Z, 22.36
2022-09-27T02:43:04.309Z, 22.36
2022-09-27T02:44:04.278Z, 22.38
2022-09-27T02:45:04.289Z, 22.36
2022-09-27T02:46:04.331Z, 22.36
2022-09-27T02:47:04.287Z, 22.36
2022-09-27T02:48:04.327Z, 22.37
2022-09-27T02:49:04.291Z, 22.39
2022-09-27T02:50:04.313Z, 22.37
2022-09-27T02:51:04.314Z, 22.38
2022-09-27T02:52:04.360Z, 22.36
2022-09-27T02:53:04.339Z, 22.35
2022-09-27T02:54:04.346Z, 22.37
2022-09-27T02:55:04.363Z, 22.37
2022-09-27T02:56:04.364Z, 22.36
2022-09-27T02:57:04.374Z, 22.38
2022-09-27T02:58:04.414Z, 22.36
2022-09-27T02:59:04.393Z, 22.36
2022-09-27T03:00:04.396Z, 22.38
2022-09-27T03:01:04.483Z, 22.36
2022-09-27T03:02:04.500Z, 22.36
2022-09-27T03:03:04.475Z, 22.37
2022-09-27T03:04:04.419Z, 22.37
2022-09-27T03:05:04.451Z, 22.37
2022-09-27T03:06:04.428Z, 22.38
2022-09-27T03:07:04.425Z, 22.38
2022-09-27T03:08:04.454Z, 22.38
2022-09-27T03:09:04.465Z, 22.36
2022-09-27T03:10:04.432Z, 22.37
2022-09-27T03:11:04.453Z, 22.38
2022-09-27T03:12:04.504Z, 22.36
2022-09-27T03:13:04.495Z, 22.36
2022-09-27T03:14:09.125Z, 22.37
2022-09-27T03:15:04.511Z, 22.37
2022-09-27T03:16:04.499Z, 22.35
2022-09-27T03:17:04.589Z, 22.36
2022-09-27T03:18:04.534Z, 22.36
2022-09-27T03:19:04.529Z, 22.37
2022-09-27T03:20:04.552Z, 22.37
2022-09-27T03:21:04.569Z, 22.35
2022-09-27T03:22:04.555Z, 22.36
2022-09-27T03:23:04.553Z, 22.35
2022-09-27T03:24:04.594Z, 22.35
2022-09-27T03:25:04.587Z, 22.38
2022-09-27T03:26:04.571Z, 22.37
2022-09-27T03:27:04.570Z, 22.36
2022-09-27T03:28:04.608Z, 22.38
2022-09-27T03:29:04.588Z, 22.38
2022-09-27T03:30:04.583Z, 22.36
2022-09-27T03:31:04.640Z, 22.37
2022-09-27T03:32:04.590Z, 22.37
2022-09-27T03:33:04.641Z, 22.35
2022-09-27T03:34:04.600Z, 22.36
2022-09-27T03:35:04.605Z, 22.34
2022-09-27T03:36:04.613Z, 22.36
2022-09-27T03:37:04.652Z, 22.36
2022-09-27T03:38:04.656Z, 22.35
2022-09-27T03:39:04.665Z, 22.35
2022-09-27T03:40:04.649Z, 22.36
2022-09-27T03:41:04.653Z, 22.35
2022-09-27T03:42:04.657Z, 22.36
2022-09-27T03:43:04.666Z, 22.35
2022-09-27T03:44:04.697Z, 22.35
2022-09-27T03:45:04.688Z, 22.35
2022-09-27T03:46:04.802Z, 22.37
2022-09-27T03:47:04.689Z, 22.34
2022-09-27T03:48:04.699Z, 22.36
2022-09-27T03:49:04.693Z, 22.36
2022-09-27T03:50:04.692Z, 22.36
2022-09-27T03:51:04.713Z, 22.37
2022-09-27T03:52:04.708Z, 22.36
2022-09-27T03:53:04.770Z, 22.35
2022-09-27T03:54:04.749Z, 22.36
2022-09-27T03:55:04.749Z, 22.35
2022-09-27T03:56:04.757Z, 22.35
2022-09-27T03:57:04.779Z, 22.35
2022-09-27T03:58:04.773Z, 22.35
2022-09-27T03:59:04.768Z, 22.36
2022-09-27T04:00:04.763Z, 22.36
2022-09-27T04:01:04.836Z, 22.35
2022-09-27T04:02:04.834Z, 22.35
2022-09-27T04:03:04.821Z, 22.35
2022-09-27T04:04:08.824Z, 22.36
2022-09-27T04:05:04.814Z, 22.35
2022-09-27T04:06:04.809Z, 22.37
2022-09-27T04:07:04.810Z, 22.35
2022-09-27T04:08:04.845Z, 22.38
2022-09-27T04:09:04.832Z, 22.37
2022-09-27T04:10:04.852Z, 22.36
2022-09-27T04:11:04.841Z, 22.38
2022-09-27T04:12:04.834Z, 22.37
2022-09-27T04:13:04.883Z, 22.38
2022-09-27T04:14:04.853Z, 22.40
2022-09-27T04:15:04.867Z, 22.40
2022-09-27T04:16:04.867Z, 22.39
2022-09-27T04:17:04.998Z, 22.41
2022-09-27T04:18:04.898Z, 22.40
2022-09-27T04:19:04.909Z, 22.40
2022-09-27T04:20:04.914Z, 22.40
2022-09-27T04:21:04.931Z, 22.41
2022-09-27T04:22:04.963Z, 22.42
2022-09-27T04:23:04.972Z, 22.43
2022-09-27T04:24:04.959Z, 22.42
2022-09-27T04:25:04.984Z, 22.40
2022-09-27T04:26:04.989Z, 22.44
2022-09-27T04:27:04.973Z, 22.42
2022-09-27T04:28:04.994Z, 22.44
2022-09-27T04:29:04.999Z, 22.45
2022-09-27T04:30:04.982Z, 22.46
2022-09-27T04:31:05.033Z, 22.45
2022-09-27T04:32:04.988Z, 22.44
2022-09-27T04:33:04.995Z, 22.47
2022-09-27T04:34:05.055Z, 22.46
2022-09-27T04:35:05.028Z, 22.48
2022-09-27T04:36:05.011Z, 22.46
2022-09-27T04:37:05.019Z, 22.46
2022-09-27T04:38:05.022Z, 22.46
2022-09-27T04:39:05.033Z, 22.47
2022-09-27T04:40:05.076Z, 22.48
2022-09-27T04:41:05.072Z, 22.48
2022-09-27T04:42:05.059Z, 22.49
2022-09-27T04:43:05.067Z, 22.47
2022-09-27T04:44:05.141Z, 22.45
2022-09-27T04:45:05.076Z, 22.47
2022-09-27T04:46:05.151Z, 22.46
2022-09-27T04:47:05.117Z, 22.47
2022-09-27T04:48:05.088Z, 22.48
2022-09-27T04:49:05.088Z, 22.48
2022-09-27T04:50:05.080Z, 22.47
2022-09-27T04:51:05.087Z, 22.50
2022-09-27T04:52:05.126Z, 22.48
2022-09-27T04:53:05.102Z, 22.48
2022-09-27T04:54:05.106Z, 22.49
2022-09-27T04:55:05.138Z, 22.45
2022-09-27T04:56:05.121Z, 22.47
2022-09-27T04:57:05.122Z, 22.46
2022-09-27T04:58:05.146Z, 22.46
2022-09-27T04:59:09.787Z, 22.49
2022-09-27T05:00:05.170Z, 22.46
2022-09-27T05:01:05.180Z, 22.45
2022-09-27T05:02:05.219Z, 22.47
2022-09-27T05:03:05.185Z, 22.45
2022-09-27T05:04:05.189Z, 22.46
2022-09-27T05:05:05.200Z, 22.46
2022-09-27T05:06:05.210Z, 22.45
2022-09-27T05:07:05.218Z, 22.44
2022-09-27T05:08:05.230Z, 22.46
2022-09-27T05:09:05.242Z, 22.46
2022-09-27T05:10:05.248Z, 22.43
2022-09-27T05:11:05.232Z, 22.44
2022-09-27T05:12:05.246Z, 22.46
2022-09-27T05:13:05.235Z, 22.45
2022-09-27T05:14:05.229Z, 22.43
2022-09-27T05:15:05.289Z, 22.44
2022-09-27T05:16:05.279Z, 22.42
2022-09-27T05:17:05.332Z, 22.43
2022-09-27T05:18:05.301Z, 22.44
2022-09-27T05:19:05.289Z, 22.43
2022-09-27T05:20:05.311Z, 22.40
2022-09-27T05:21:05.305Z, 22.42
2022-09-27T05:22:05.340Z, 22.38
2022-09-27T05:23:05.326Z, 22.41
2022-09-27T05:24:05.321Z, 22.41
2022-09-27T05:25:05.325Z, 22.41
2022-09-27T05:26:05.323Z, 22.39
2022-09-27T05:27:05.359Z, 22.38
2022-09-27T05:28:05.344Z, 22.42
2022-09-27T05:29:05.373Z, 22.37
2022-09-27T05:30:05.355Z, 22.42
2022-09-27T05:31:05.406Z, 22.42
2022-09-27T05:32:05.356Z, 22.40
2022-09-27T05:33:05.359Z, 22.40
2022-09-27T05:34:05.375Z, 22.40
2022-09-27T05:35:05.365Z, 22.40
2022-09-27T05:36:05.400Z, 22.40
2022-09-27T05:37:05.377Z, 22.41
2022-09-27T05:38:05.378Z, 22.40
2022-09-27T05:39:05.405Z, 22.42
2022-09-27T05:40:22.367Z, 22.41
2022-09-27T05:41:05.557Z, 22.40
2022-09-27T05:42:05.402Z, 22.42
2022-09-27T05:43:05.406Z, 22.40
2022-09-27T05:44:05.447Z, 22.41
2022-09-27T05:45:05.433Z, 22.40
2022-09-27T05:46:05.583Z, 22.42
2022-09-27T05:47:05.428Z, 22.43
2022-09-27T05:48:05.468Z, 22.44
2022-09-27T05:49:05.461Z, 22.40
2022-09-27T05:50:05.455Z, 22.43
2022-09-27T05:51:05.471Z, 22.44
2022-09-27T05:52:05.464Z, 22.42
2022-09-27T05:53:05.477Z, 22.43
2022-09-27T05:54:05.496Z, 22.44
2022-09-27T05:55:05.461Z, 22.43
2022-09-27T05:56:05.467Z, 22.44
2022-09-27T05:57:05.472Z, 22.44
2022-09-27T05:58:05.514Z, 22.44
2022-09-27T05:59:05.512Z, 22.44
2022-09-27T06:00:05.506Z, 22.46
2022-09-27T06:01:05.506Z, 22.44
2022-09-27T06:02:05.718Z, 22.44
2022-09-27T06:03:05.692Z, 22.44
2022-09-27T06:04:05.560Z, 22.45
2022-09-27T06:05:05.550Z, 22.43
2022-09-27T06:06:05.577Z, 22.44
2022-09-27T06:07:05.556Z, 22.45
2022-09-27T06:08:05.557Z, 22.46
2022-09-27T06:09:05.561Z, 22.43
2022-09-27T06:10:05.561Z, 22.45
2022-09-27T06:11:05.573Z, 22.45
2022-09-27T06:12:05.572Z, 22.44
2022-09-27T06:13:05.571Z, 22.46
2022-09-27T06:14:05.602Z, 22.45
2022-09-27T06:15:05.587Z, 22.44
2022-09-27T06:16:05.629Z, 22.45
2022-09-27T06:17:05.687Z, 22.43
2022-09-27T06:18:05.605Z, 22.44
2022-09-27T06:19:05.614Z, 22.44
2022-09-27T06:20:05.627Z, 22.46
2022-09-27T06:21:05.648Z, 22.44
2022-09-27T06:22:05.672Z, 22.45
2022-09-27T06:23:05.657Z, 22.44
2022-09-27T06:24:05.653Z, 22.46
2022-09-27T06:25:05.666Z, 22.46
2022-09-27T06:26:05.664Z, 22.45
2022-09-27T06:27:05.697Z, 22.45
2022-09-27T06:28:05.695Z, 22.44
2022-09-27T06:29:05.688Z, 22.44
2022-09-27T06:30:05.683Z, 22.47
2022-09-27T06:31:05.750Z, 22.47
2022-09-27T06:32:05.710Z, 22.45
2022-09-27T06:33:05.718Z, 22.46
2022-09-27T06:34:05.700Z, 22.45
2022-09-27T06:35:05.720Z, 22.46
2022-09-27T06:36:05.864Z, 22.47
2022-09-27T06:37:05.718Z, 22.46
2022-09-27T06:38:05.751Z, 22.45
2022-09-27T06:39:05.731Z, 22.48
2022-09-27T06:40:05.744Z, 22.46
2022-09-27T06:41:05.775Z, 22.46
2022-09-27T06:42:05.787Z, 22.46
2022-09-27T06:43:05.780Z, 22.45
2022-09-27T06:44:05.791Z, 22.47
2022-09-27T06:45:05.777Z, 22.45
2022-09-27T06:46:05.965Z, 22.45
2022-09-27T06:47:05.780Z, 22.47
2022-09-27T06:48:05.779Z, 22.45
2022-09-27T06:49:05.787Z, 22.46
2022-09-27T06:50:05.787Z, 22.48
2022-09-27T06:51:05.798Z, 22.45
2022-09-27T06:52:05.805Z, 22.47
2022-09-27T06:53:05.808Z, 22.46
2022-09-27T06:54:05.804Z, 22.46
2022-09-27T06:55:05.802Z, 22.46
2022-09-27T06:56:05.838Z, 22.48
2022-09-27T06:57:05.835Z, 22.47
2022-09-27T06:58:05.831Z, 22.47
2022-09-27T06:59:05.833Z, 22.48
2022-09-27T07:00:05.841Z, 22.47
2022-09-27T07:01:05.918Z, 22.47
2022-09-27T07:02:05.885Z, 22.49
2022-09-27T07:03:05.859Z, 22.48
2022-09-27T07:04:05.859Z, 22.47
2022-09-27T07:05:05.870Z, 22.48
2022-09-27T07:06:05.873Z, 22.46
2022-09-27T07:07:05.899Z, 22.46
2022-09-27T07:08:05.890Z, 22.47
2022-09-27T07:09:05.897Z, 22.46
2022-09-27T07:10:09.668Z, 22.48
2022-09-27T07:11:07.737Z, 22.47
2022-09-27T07:12:05.939Z, 22.45
2022-09-27T07:13:05.931Z, 22.48
2022-09-27T07:14:05.922Z, 22.47
2022-09-27T07:15:05.920Z, 22.46
2022-09-27T07:16:05.956Z, 22.48
2022-09-27T07:17:05.920Z, 22.47
2022-09-27T07:18:05.922Z, 22.46
2022-09-27T07:19:05.941Z, 22.48
2022-09-27T07:20:05.949Z, 22.47
2022-09-27T07:21:05.932Z, 22.45
2022-09-27T07:22:05.936Z, 22.47
2022-09-27T07:23:05.932Z, 22.47
2022-09-27T07:24:05.960Z, 22.46
2022-09-27T07:25:05.956Z, 22.49
2022-09-27T07:26:05.954Z, 22.45
2022-09-27T07:27:05.956Z, 22.48
2022-09-27T07:28:05.969Z, 22.49
2022-09-27T07:29:05.998Z, 22.48
2022-09-27T07:30:06.114Z, 22.48
2022-09-27T07:31:06.096Z, 22.48
2022-09-27T07:32:05.982Z, 22.47
2022-09-27T07:33:05.988Z, 22.50
2022-09-27T07:34:06.009Z, 22.48
2022-09-27T07:35:05.993Z, 22.46
2022-09-27T07:36:05.992Z, 22.50
2022-09-27T07:37:05.994Z, 22.48
2022-09-27T07:38:05.987Z, 22.48
2022-09-27T07:39:06.030Z, 22.49
2022-09-27T07:40:05.997Z, 22.47
2022-09-27T07:41:05.997Z, 22.48
2022-09-27T07:42:05.999Z, 22.47
2022-09-27T07:43:06.001Z, 22.46
2022-09-27T07:44:05.997Z, 22.48
2022-09-27T07:45:09.058Z, 22.47
2022-09-27T07:46:06.033Z, 22.48
2022-09-27T07:47:05.998Z, 22.47
2022-09-27T07:48:06.005Z, 22.47
2022-09-27T07:49:06.013Z, 22.46
2022-09-27T07:50:06.013Z, 22.48
2022-09-27T07:51:06.038Z, 22.48
2022-09-27T07:52:06.033Z, 22.45
2022-09-27T07:53:06.016Z, 22.47
2022-09-27T07:54:08.756Z, 22.49
2022-09-27T07:55:06.043Z, 22.46
2022-09-27T07:56:06.020Z, 22.47
2022-09-27T07:57:06.020Z, 22.46
2022-09-27T07:58:06.026Z, 22.46
2022-09-27T07:59:06.036Z, 22.49
2022-09-27T08:00:06.046Z, 22.47
2022-09-27T08:01:06.104Z, 22.48
2022-09-27T08:02:06.055Z, 22.49
2022-09-27T08:03:06.053Z, 22.48
2022-09-27T08:04:06.034Z, 22.48
2022-09-27T08:05:06.040Z, 22.50
2022-09-27T08:06:06.038Z, 22.47
2022-09-27T08:07:06.033Z, 22.48
2022-09-27T08:08:06.037Z, 22.48
2022-09-27T08:09:06.051Z, 22.48
2022-09-27T08:10:06.039Z, 22.48
2022-09-27T08:11:06.036Z, 22.50
2022-09-27T08:12:06.041Z, 22.47
2022-09-27T08:13:06.042Z, 22.48
2022-09-27T08:14:06.042Z, 22.48
2022-09-27T08:15:06.048Z, 22.47
2022-09-27T08:16:06.064Z, 22.47
2022-09-27T08:17:06.042Z, 22.47
2022-09-27T08:18:06.129Z, 22.47
2022-09-27T08:19:06.167Z, 22.49
2022-09-27T08:20:06.142Z, 22.48
2022-09-27T08:21:06.170Z, 22.48
2022-09-27T08:22:06.162Z, 22.47
2022-09-27T08:23:06.203Z, 22.48
2022-09-27T08:24:06.315Z, 22.48
2022-09-27T08:25:06.289Z, 22.49
2022-09-27T08:26:06.320Z, 22.48
2022-09-27T08:27:11.368Z, 22.48
2022-09-27T08:28:06.458Z, 22.48
2022-09-27T08:29:06.443Z, 22.49
2022-09-27T08:30:06.519Z, 22.49
2022-09-27T08:31:06.501Z, 22.49
2022-09-27T08:32:06.565Z, 22.48
2022-09-27T08:33:06.641Z, 22.49
2022-09-27T08:34:06.678Z, 22.50
2022-09-27T08:35:06.643Z, 22.47
2022-09-27T08:36:06.655Z, 22.48
2022-09-27T08:37:06.694Z, 22.48
2022-09-27T08:38:06.736Z, 22.48
2022-09-27T08:39:06.795Z, 22.50
2022-09-27T08:40:06.889Z, 22.49
2022-09-27T08:41:06.929Z, 22.48
2022-09-27T08:42:06.907Z, 22.48
2022-09-27T08:43:06.915Z, 22.48
2022-09-27T08:44:06.943Z, 22.46
2022-09-27T08:45:06.957Z, 22.47
2022-09-27T08:46:07.062Z, 22.48
2022-09-27T08:47:07.085Z, 22.47
2022-09-27T08:48:07.108Z, 22.47
2022-09-27T08:49:07.103Z, 22.48
2022-09-27T08:50:07.128Z, 22.46
2022-09-27T08:51:07.172Z, 22.49
2022-09-27T08:52:07.219Z, 22.46
2022-09-27T08:53:07.242Z, 22.48
2022-09-27T08:54:07.258Z, 22.46
2022-09-27T08:55:07.296Z, 22.48
2022-09-27T08:56:07.351Z, 22.50
2022-09-27T08:57:07.386Z, 22.49
2022-09-27T08:58:07.470Z, 22.47
2022-09-27T08:59:07.535Z, 22.50
2022-09-27T09:00:07.489Z, 22.49
2022-09-27T09:01:07.576Z, 22.47
2022-09-27T09:02:07.602Z, 22.49
2022-09-27T09:03:07.652Z, 22.48
2022-09-27T09:04:07.689Z, 22.47
2022-09-27T09:05:07.683Z, 22.50
2022-09-27T09:06:07.746Z, 22.48
2022-09-27T09:07:07.737Z, 22.46
2022-09-27T09:08:07.809Z, 22.50
2022-09-27T09:09:07.806Z, 22.49
2022-09-27T09:10:07.808Z, 22.47
2022-09-27T09:11:07.870Z, 22.49
2022-09-27T09:12:07.877Z, 22.49
2022-09-27T09:13:07.929Z, 22.48
2022-09-27T09:14:12.793Z, 22.48
2022-09-27T09:15:08.031Z, 22.47
2022-09-27T09:16:08.140Z, 22.48
2022-09-27T09:17:08.071Z, 22.48
2022-09-27T09:18:08.109Z, 22.47
2022-09-27T09:19:08.131Z, 22.50
2022-09-27T09:20:08.234Z, 22.50
2022-09-27T09:21:08.229Z, 22.48
2022-09-27T09:22:08.317Z, 22.48
2022-09-27T09:23:08.333Z, 22.48
2022-09-27T09:24:08.308Z, 22.49
2022-09-27T09:25:08.343Z, 22.49
2022-09-27T09:26:08.361Z, 22.50
2022-09-27T09:27:08.380Z, 22.48
2022-09-27T09:28:08.424Z, 22.49
2022-09-27T09:29:08.469Z, 22.49
2022-09-27T09:30:08.516Z, 22.49
2022-09-27T09:31:08.610Z, 22.51
2022-09-27T09:32:08.603Z, 22.50
2022-09-27T09:33:08.629Z, 22.48
2022-09-27T09:34:08.738Z, 22.50
2022-09-27T09:35:08.754Z, 22.49
2022-09-27T09:36:08.745Z, 22.50
2022-09-27T09:37:08.800Z, 22.51
2022-09-27T09:38:08.807Z, 22.52
2022-09-27T09:39:08.838Z, 22.50
2022-09-27T09:40:09.275Z, 22.51
2022-09-27T09:41:08.990Z, 22.50
2022-09-27T09:42:08.976Z, 22.51
2022-09-27T09:43:08.993Z, 22.50
2022-09-27T09:44:09.088Z, 22.51
2022-09-27T09:45:09.058Z, 22.53
2022-09-27T09:46:09.189Z, 22.52
2022-09-27T09:47:09.125Z, 22.51
2022-09-27T09:48:09.170Z, 22.53
2022-09-27T09:49:09.215Z, 22.52
2022-09-27T09:50:09.248Z, 22.51
2022-09-27T09:51:09.339Z, 22.53
2022-09-27T09:52:09.386Z, 22.51
2022-09-27T09:53:09.358Z, 22.51
2022-09-27T09:54:09.437Z, 22.54
2022-09-27T09:55:09.448Z, 22.54
2022-09-27T09:56:09.528Z, 22.52
2022-09-27T09:57:09.501Z, 22.54
2022-09-27T09:58:09.598Z, 22.53
2022-09-27T09:59:09.547Z, 22.53
2022-09-27T10:00:09.644Z, 22.53
2022-09-27T10:01:09.642Z, 22.56
2022-09-27T10:02:09.770Z, 22.54
2022-09-27T10:03:09.666Z, 22.53
2022-09-27T10:04:09.839Z, 22.55
2022-09-27T10:05:09.759Z, 22.55
2022-09-27T10:06:09.792Z, 22.57
2022-09-27T10:07:09.881Z, 22.55
2022-09-27T10:08:09.865Z, 22.57
2022-09-27T10:09:09.889Z, 22.56
2022-09-27T10:10:09.959Z, 22.56
2022-09-27T10:11:10.008Z, 22.57
2022-09-27T10:12:10.006Z, 22.58
2022-09-27T10:13:10.110Z, 22.56
2022-09-27T10:14:10.102Z, 22.58
2022-09-27T10:15:10.088Z, 22.57
2022-09-27T10:16:10.252Z, 22.56
2022-09-27T10:17:10.217Z, 22.56
2022-09-27T10:18:10.225Z, 22.57
2022-09-27T10:19:10.281Z, 22.57
2022-09-27T10:20:10.279Z, 22.57
2022-09-27T10:21:10.375Z, 22.56
2022-09-27T10:22:10.409Z, 22.56
2022-09-27T10:23:10.395Z, 22.57
2022-09-27T10:24:15.189Z, 22.56
2022-09-27T10:25:10.422Z, 22.56
2022-09-27T10:26:10.483Z, 22.58
2022-09-27T10:27:10.471Z, 22.58
2022-09-27T10:28:10.506Z, 22.56
2022-09-27T10:29:10.589Z, 22.58
2022-09-27T10:30:10.582Z, 22.57
2022-09-27T10:31:10.747Z, 22.58
2022-09-27T10:32:10.654Z, 22.59
2022-09-27T10:33:10.719Z, 22.57
2022-09-27T10:34:10.777Z, 22.59
2022-09-27T10:35:10.770Z, 22.59
2022-09-27T10:36:10.838Z, 22.57
2022-09-27T10:37:10.870Z, 22.58
2022-09-27T10:38:10.853Z, 22.59
2022-09-27T10:39:10.879Z, 22.58
2022-09-27T10:40:10.917Z, 22.59
2022-09-27T10:41:11.021Z, 22.59
2022-09-27T10:42:10.993Z, 22.57
2022-09-27T10:43:11.070Z, 22.57
2022-09-27T10:44:11.072Z, 22.59
2022-09-27T10:45:11.078Z, 22.58
2022-09-27T10:46:11.211Z, 22.59
2022-09-27T10:47:11.145Z, 22.58
2022-09-27T10:48:11.160Z, 22.58
2022-09-27T10:49:11.195Z, 22.59
2022-09-27T10:50:15.849Z, 22.58
2022-09-27T10:51:11.260Z, 22.58
2022-09-27T10:52:11.299Z, 22.60
2022-09-27T10:53:11.326Z, 22.58
2022-09-27T10:54:11.417Z, 22.59
2022-09-27T10:55:11.487Z, 22.59
2022-09-27T10:56:11.495Z, 22.58
2022-09-27T10:57:11.466Z, 22.60
2022-09-27T10:58:11.469Z, 22.59
2022-09-27T10:59:11.658Z, 22.60
2022-09-27T11:00:11.597Z, 22.57
2022-09-27T11:01:11.635Z, 22.57
2022-09-27T11:02:11.706Z, 22.57
2022-09-27T11:03:11.680Z, 22.57
2022-09-27T11:04:11.824Z, 22.60
2022-09-27T11:05:15.045Z, 22.57
2022-09-27T11:06:11.784Z, 22.59
2022-09-27T11:07:11.830Z, 22.58
2022-09-27T11:08:11.840Z, 22.57
2022-09-27T11:09:11.877Z, 22.60
2022-09-27T11:10:11.903Z, 22.58
2022-09-27T11:11:11.998Z, 22.59
2022-09-27T11:12:11.990Z, 22.59
2022-09-27T11:13:12.083Z, 22.58
2022-09-27T11:14:12.149Z, 22.58
2022-09-27T11:15:12.050Z, 22.61
2022-09-27T11:16:12.224Z, 22.59
2022-09-27T11:17:12.157Z, 22.59
2022-09-27T11:18:12.176Z, 22.60
2022-09-27T11:19:15.457Z, 22.60
2022-09-27T11:20:12.246Z, 22.60
2022-09-27T11:21:12.268Z, 22.60
2022-09-27T11:22:12.305Z, 22.59
2022-09-27T11:23:12.332Z, 22.59
2022-09-27T11:24:12.365Z, 22.62
2022-09-27T11:25:12.477Z, 22.59
2022-09-27T11:26:12.525Z, 22.61
2022-09-27T11:27:12.555Z, 22.60
2022-09-27T11:28:12.568Z, 22.60
2022-09-27T11:29:12.607Z, 22.60
2022-09-27T11:30:12.587Z, 22.61
2022-09-27T11:31:16.332Z, 22.59
2022-09-27T11:32:12.663Z, 22.60
2022-09-27T11:33:12.697Z, 22.59
2022-09-27T11:34:12.737Z, 22.59
2022-09-27T11:35:12.843Z, 22.60
2022-09-27T11:36:12.823Z, 22.60
2022-09-27T11:37:12.845Z, 22.60
2022-09-27T11:38:12.868Z, 22.61
2022-09-27T11:39:13.176Z, 22.60
2022-09-27T11:40:13.115Z, 22.57
2022-09-27T11:41:13.142Z, 22.60
2022-09-27T11:42:13.084Z, 22.58
2022-09-27T11:43:13.047Z, 22.59
2022-09-27T11:44:13.083Z, 22.59
2022-09-27T11:45:34.235Z, 22.58
2022-09-27T11:46:20.595Z, 22.60
2022-09-27T11:47:13.246Z, 22.61
2022-09-27T11:48:13.187Z, 22.59
2022-09-27T11:49:13.233Z, 22.59
2022-09-27T11:50:13.263Z, 22.60
2022-09-27T11:51:13.299Z, 22.61
2022-09-27T11:52:13.378Z, 22.60
2022-09-27T11:53:13.365Z, 22.58
2022-09-27T11:54:13.541Z, 22.58
2022-09-27T11:55:13.422Z, 22.59
2022-09-27T11:56:13.455Z, 22.60
2022-09-27T11:57:13.446Z, 22.58
2022-09-27T11:58:13.501Z, 22.60
2022-09-27T11:59:13.680Z, 22.59
2022-09-27T12:00:13.590Z, 22.58
2022-09-27T12:01:13.568Z, 22.59
2022-09-27T12:02:13.683Z, 22.60
2022-09-27T12:03:13.709Z, 22.58
2022-09-27T12:04:13.728Z, 22.59
2022-09-27T12:05:13.723Z, 22.59
2022-09-27T12:06:13.769Z, 22.60
2022-09-27T12:07:13.790Z, 22.58
2022-09-27T12:08:13.820Z, 22.59
2022-09-27T12:09:13.923Z, 22.56
2022-09-27T12:10:13.886Z, 22.60
2022-09-27T12:11:13.920Z, 22.57
2022-09-27T12:12:14.206Z, 22.58
2022-09-27T12:13:14.067Z, 22.60
2022-09-27T12:14:14.210Z, 22.59
2022-09-27T12:15:14.203Z, 22.59
2022-09-27T12:16:14.386Z, 22.59
2022-09-27T12:17:14.350Z, 22.58
2022-09-27T12:18:14.345Z, 22.60
2022-09-27T12:19:14.428Z, 22.60
2022-09-27T12:20:14.350Z, 22.59
2022-09-27T12:21:14.373Z, 22.59
2022-09-27T12:22:14.495Z, 22.59
2022-09-27T12:23:14.512Z, 22.59
2022-09-27T12:24:14.490Z, 22.60
2022-09-27T12:25:19.662Z, 22.58
2022-09-27T12:26:14.517Z, 22.57
2022-09-27T12:27:14.630Z, 22.58
2022-09-27T12:28:14.629Z, 22.60
2022-09-27T12:29:14.715Z, 22.58